Elmira Heights, NY

9:57 AM EDT on October 17, 2019 (GMT -0400)
Fairgrounds South | | Change Station

Elev 896 ft 42.14 °N, 76.82 °W | Updated 13 seconds ago

Overcast
Overcast
46.6 °F
Feels Like 47 °F
N
2.2
Wind Variable Wind from North
Gusts 0.0 mph

Today
High -- | Low -- °F
--% Chance of Precip.
Yesterday
High -- | Low -- °F
Precip. -- in
Pressure 29.38 in
Visibility 10.0 miles
Clouds Mostly Cloudy 2100 ft
Overcast 2700 ft
Windchill 47 °F
Dew Point 42 °F
Humidity 84%
Rainfall 0.09 in
Snow Depth Not available.
7:21 AM 6:22 PM
Waning Gibbous, 87% visible
METAR KELM 171353Z 28019G27KT 10SM -RA BKN021 OVC027 09/06 A2938 RMK AO2 PK WND 28027/1334 RAE09B27 SLP949 P0000 T00890056
Pressure 29.38 in
Visibility 10.0 miles
Clouds Mostly Cloudy 2100 ft
Overcast 2700 ft
Windchill 47 °F
Dew Point 42 °F
Humidity 84%
Rainfall 0.09 in
Snow Depth Not available.
7:21 AM 6:22 PM
Waning Gibbous, 87% visible
METAR KELM 171353Z 28019G27KT 10SM -RA BKN021 OVC027 09/06 A2938 RMK AO2 PK WND 28027/1334 RAE09B27 SLP949 P0000 T00890056

Get Severe Weather Alerts

Thanks for signing up!

Be on the lookout for a verification email in your inbox.

You'll start receiving the daily forecast at 6 AM.

×

10-Day Weather Forecast

Almanac

Astronomy

Oct. 17, 2019 Rise Set
Actual Time
Civil Twilight
Nautical Twilight
Astronomical Twilight
Moon
Length of Visible Light
Length of Day
Tomorrow will be .
, % of the Moon is Illuminated

Today's Extremes

State Highs State Lows

Community

WunderPhotos

Category 6

Welcome to Category 6. This is the collective home for Weather Underground's featured writeups by Dr. Jeff Masters (right), Bob Henson (left), Chris Burt, and other regular contributors.

Nearby

Air Quality

  Air Quality AQ Index Pollutant
Not available.

Snow Depth

Station Depth Elevation

Earthquake Activity

City Distance Mag. Time & Date
Minimum magnitude displayed is 2.5.

Coastal Water Temperatures

Place Temperature

Stations

Nearby Weather Stations

Station Location Temp. Windchill Dew Point Humidity Wind Precip. Elev Updated Type
                   

Watches & Warnings

There are currently no watches in effect.